Terminal Aerodrome Forecast
Issued by NWS

Home | Current Version | Previous Version | Text Only | Print | Product List | Glossary On
Versions: 1 2 3 4 5 6 7 8 9 10 11 12 13 14 15 16 17 18 19
000
FTUS46 KMFR 200500
TAFOTH
TAF
KOTH 200539Z 2006/2106 21010G20KT P6SM -RA SCT025 BKN040 BKN060
     FM200700 18010KT P6SM -RA BKN020 OVC035
     FM200900 19010KT P6SM -RA OVC015
     FM201600 18008KT P6SM VCSH SCT020 BKN035
     FM202100 21014G22KT P6SM SCT040=

USA.gov is the U.S. government's official web portal to all federal, state and local government web resources and services.